createdAt,value
2018-06-09T00:00:30.709Z,22.12
2018-06-09T00:01:30.752Z,22.14
2018-06-09T00:02:31.999Z,22.13
2018-06-09T00:03:30.608Z,22.11
2018-06-09T00:04:30.675Z,22.12
2018-06-09T00:05:30.782Z,22.12
2018-06-09T00:06:30.748Z,22.12
2018-06-09T00:07:32.081Z,22.12
2018-06-09T00:08:30.371Z,22.11
2018-06-09T00:09:30.833Z,22.13
2018-06-09T00:10:32.040Z,22.14
2018-06-09T00:11:30.757Z,22.11
2018-06-09T00:12:31.745Z,22.12
2018-06-09T00:13:30.764Z,22.12
2018-06-09T00:14:30.788Z,22.12
2018-06-09T00:15:30.672Z,22.13
2018-06-09T00:16:30.549Z,22.12
2018-06-09T00:17:30.702Z,22.12
2018-06-09T00:18:30.854Z,22.11
2018-06-09T00:19:30.894Z,22.11
2018-06-09T00:20:30.804Z,22.12
2018-06-09T00:21:30.431Z,22.12
2018-06-09T00:22:32.049Z,22.13
2018-06-09T00:23:30.638Z,22.11
2018-06-09T00:24:30.454Z,22.11
2018-06-09T00:25:31.379Z,22.11
2018-06-09T00:26:30.706Z,22.1
2018-06-09T00:27:30.747Z,22.11
2018-06-09T00:28:30.883Z,22.12
2018-06-09T00:29:30.870Z,22.11
2018-06-09T00:30:30.577Z,22.11
2018-06-09T00:31:30.575Z,22.12
2018-06-09T00:32:30.555Z,22.11
2018-06-09T00:33:30.827Z,22.1
2018-06-09T00:34:30.694Z,22.12
2018-06-09T00:35:30.823Z,22.11
2018-06-09T00:36:30.651Z,22.11
2018-06-09T00:37:30.818Z,22.12
2018-06-09T00:38:30.175Z,22.11
2018-06-09T00:39:29.872Z,22.1
2018-06-09T00:40:30.767Z,22.11
2018-06-09T00:41:29.987Z,22.12
2018-06-09T00:42:30.053Z,22.11
2018-06-09T00:43:30.112Z,22.09
2018-06-09T00:44:29.968Z,22.11
2018-06-09T00:45:30.848Z,22.09
2018-06-09T00:46:30.950Z,22.1
2018-06-09T00:47:30.097Z,22.11
2018-06-09T00:48:30.091Z,22.11
2018-06-09T00:49:31.636Z,22.09
2018-06-09T00:50:30.184Z,22.11
2018-06-09T00:51:30.625Z,22.1
2018-06-09T00:52:30.041Z,22.11
2018-06-09T00:53:29.967Z,22.11
2018-06-09T00:54:30.048Z,22.11
2018-06-09T00:55:29.937Z,22.11
2018-06-09T00:56:29.926Z,22.1
2018-06-09T00:57:29.948Z,22.08
2018-06-09T00:58:30.019Z,22.11
2018-06-09T00:59:30.115Z,22.09
2018-06-09T01:00:29.864Z,22.09
2018-06-09T01:01:29.912Z,22.1
2018-06-09T01:02:30.144Z,22.1
2018-06-09T01:03:30.035Z,22.1
2018-06-09T01:04:30.441Z,22.08
2018-06-09T01:05:29.871Z,22.09
2018-06-09T01:06:30.033Z,22.1
2018-06-09T01:07:29.947Z,22.1
2018-06-09T01:08:30.066Z,22.08
2018-06-09T01:09:30.134Z,22.09
2018-06-09T01:10:29.957Z,22.1
2018-06-09T01:11:46.486Z,22.09
2018-06-09T01:12:29.881Z,22.11
2018-06-09T01:13:30.094Z,22.09
2018-06-09T01:14:29.910Z,22.08
2018-06-09T01:15:30.145Z,22.09
2018-06-09T01:16:29.838Z,22.09
2018-06-09T01:17:29.929Z,22.09
2018-06-09T01:18:30.113Z,22.08
2018-06-09T01:19:30.016Z,22.07
2018-06-09T01:20:29.997Z,22.09
2018-06-09T01:21:30.703Z,22.08
2018-06-09T01:22:30.040Z,22.08
2018-06-09T01:23:29.887Z,22.08
2018-06-09T01:24:29.948Z,22.08
2018-06-09T01:25:30.079Z,22.07
2018-06-09T01:26:30.170Z,22.09
2018-06-09T01:27:30.010Z,22.08
2018-06-09T01:28:39.941Z,22.09
2018-06-09T01:29:29.929Z,22.09
2018-06-09T01:30:30.105Z,22.09
2018-06-09T01:31:30.065Z,22.08
2018-06-09T01:32:30.113Z,22.08
2018-06-09T01:33:30.033Z,22.08
2018-06-09T01:34:30.062Z,22.09
2018-06-09T01:35:30.066Z,22.08
2018-06-09T01:36:30.012Z,22.07
2018-06-09T01:37:30.065Z,22.07
2018-06-09T01:38:30.281Z,22.09
2018-06-09T01:39:29.986Z,22.07
2018-06-09T01:40:30.016Z,22.08
2018-06-09T01:41:30.018Z,22.08
2018-06-09T01:42:30.092Z,22.07
2018-06-09T01:43:30.195Z,22.08
2018-06-09T01:44:32.618Z,22.08
2018-06-09T01:45:30.079Z,22.08
2018-06-09T01:46:30.017Z,22.06
2018-06-09T01:47:30.051Z,22.08
2018-06-09T01:48:29.978Z,22.07
2018-06-09T01:49:30.013Z,22.07
2018-06-09T01:50:30.172Z,22.07
2018-06-09T01:51:30.013Z,22.07
2018-06-09T01:52:29.980Z,22.08
2018-06-09T01:53:30.149Z,22.07
2018-06-09T01:54:30.069Z,22.07
2018-06-09T01:55:29.997Z,22.09
2018-06-09T01:56:30.089Z,22.06
2018-06-09T01:57:30.148Z,22.07
2018-06-09T01:58:29.994Z,22.06
2018-06-09T01:59:32.650Z,22.08
2018-06-09T02:00:30.222Z,22.05
2018-06-09T02:01:29.992Z,22.06
2018-06-09T02:02:30.098Z,22.08
2018-06-09T02:03:30.133Z,22.07
2018-06-09T02:04:30.139Z,22.05
2018-06-09T02:05:32.651Z,22.06
2018-06-09T02:06:30.119Z,22.07
2018-06-09T02:07:30.155Z,22.07
2018-06-09T02:08:30.130Z,22.05
2018-06-09T02:09:30.316Z,22.07
2018-06-09T02:10:30.002Z,22.06
2018-06-09T02:11:30.044Z,22.07
2018-06-09T02:12:32.421Z,22.07
2018-06-09T02:13:30.173Z,22.07
2018-06-09T02:14:30.372Z,22.07
2018-06-09T02:15:30.076Z,22.08
2018-06-09T02:16:30.003Z,22.06
2018-06-09T02:17:30.008Z,22.07
2018-06-09T02:18:30.031Z,22.05
2018-06-09T02:19:30.121Z,22.06
2018-06-09T02:20:30.115Z,22.07
2018-06-09T02:21:30.147Z,22.06
2018-06-09T02:22:30.086Z,22.06
2018-06-09T02:23:30.213Z,22.05
2018-06-09T02:24:32.623Z,22.05
2018-06-09T02:25:30.023Z,22.04
2018-06-09T02:26:30.101Z,22.08
2018-06-09T02:27:30.133Z,22.06
2018-06-09T02:28:30.047Z,22.04
2018-06-09T02:29:30.034Z,22.06
2018-06-09T02:30:30.132Z,22.06
2018-06-09T02:31:30.205Z,22.08
2018-06-09T02:32:32.646Z,22.06
2018-06-09T02:33:30.134Z,22.04
2018-06-09T02:34:30.112Z,22.06
2018-06-09T02:35:30.091Z,22.03
2018-06-09T02:36:30.053Z,22.06
2018-06-09T02:37:30.136Z,22.05
2018-06-09T02:38:30.012Z,22.03
2018-06-09T02:39:30.341Z,22.06
2018-06-09T02:40:30.274Z,22.06
2018-06-09T02:41:30.234Z,22.05
2018-06-09T02:42:29.825Z,22.04
2018-06-09T02:43:30.386Z,22.05
2018-06-09T02:44:30.308Z,22.07
2018-06-09T02:45:30.314Z,22.06
2018-06-09T02:46:30.627Z,22.04
2018-06-09T02:47:30.653Z,22.05
2018-06-09T02:48:30.232Z,22.03
2018-06-09T02:49:30.292Z,22.06
2018-06-09T02:50:30.597Z,22.06
2018-06-09T02:51:30.425Z,22.05
2018-06-09T02:52:30.246Z,22.05
2018-06-09T02:53:30.911Z,22.05
2018-06-09T02:54:30.247Z,22.05
2018-06-09T02:55:30.325Z,22.06
2018-06-09T02:56:30.421Z,22.05
2018-06-09T02:57:30.309Z,22.04
2018-06-09T02:58:30.370Z,22.03
2018-06-09T02:59:30.275Z,22.05
2018-06-09T03:00:30.326Z,22.05
2018-06-09T03:01:30.259Z,22.05
2018-06-09T03:02:30.427Z,22.04
2018-06-09T03:03:30.563Z,22.06
2018-06-09T03:04:30.283Z,22.04
2018-06-09T03:05:30.247Z,22.05
2018-06-09T03:06:30.537Z,22.04
2018-06-09T03:07:30.599Z,22.06
2018-06-09T03:08:30.352Z,22.05
2018-06-09T03:09:30.296Z,22.03
2018-06-09T03:10:30.338Z,22.05
2018-06-09T03:11:30.597Z,22.05
2018-06-09T03:12:30.615Z,22.05
2018-06-09T03:13:29.876Z,22.05
2018-06-09T03:14:30.604Z,22.04
2018-06-09T03:15:30.264Z,22.06
2018-06-09T03:16:29.854Z,22.05
2018-06-09T03:17:31.018Z,22.05
2018-06-09T03:18:32.268Z,22.04
2018-06-09T03:19:30.325Z,22.03
2018-06-09T03:20:29.889Z,22.04
2018-06-09T03:21:29.891Z,22.05
2018-06-09T03:22:30.611Z,22.04
2018-06-09T03:23:30.318Z,22.02
2018-06-09T03:24:30.574Z,22.03
2018-06-09T03:25:30.369Z,22.04
2018-06-09T03:26:30.406Z,22.03
2018-06-09T03:27:30.962Z,22.04
2018-06-09T03:28:32.712Z,22.03
2018-06-09T03:29:30.923Z,22.04
2018-06-09T03:30:30.198Z,22.05
2018-06-09T03:31:32.461Z,22.05
2018-06-09T03:32:30.494Z,22.05
2018-06-09T03:33:29.894Z,22.04
2018-06-09T03:34:30.307Z,22.03
2018-06-09T03:35:30.567Z,22.03
2018-06-09T03:36:30.375Z,22.03
2018-06-09T03:37:30.306Z,22.03
2018-06-09T03:38:30.134Z,22.03
2018-06-09T03:39:30.003Z,22.02
2018-06-09T03:40:30.006Z,22.04
2018-06-09T03:41:30.138Z,22.04
2018-06-09T03:42:29.945Z,22.03
2018-06-09T03:43:29.983Z,22.03
2018-06-09T03:44:29.904Z,22.03
2018-06-09T03:45:29.938Z,22.02
2018-06-09T03:46:29.898Z,22.04
2018-06-09T03:47:30.032Z,22.02
2018-06-09T03:48:29.937Z,22.02
2018-06-09T03:49:30.092Z,22.03
2018-06-09T03:50:30.119Z,22.04
2018-06-09T03:51:30.899Z,22.04
2018-06-09T03:52:29.939Z,22.02
2018-06-09T03:53:29.900Z,22.03
2018-06-09T03:54:30.078Z,22.03
2018-06-09T03:55:30.060Z,22.02
2018-06-09T03:56:30.040Z,22.04
2018-06-09T03:57:30.120Z,22.03
2018-06-09T03:58:29.968Z,22.02
2018-06-09T03:59:29.877Z,22.02
2018-06-09T04:00:30.021Z,22.04
2018-06-09T04:01:29.993Z,22.03
2018-06-09T04:02:30.038Z,22.02
2018-06-09T04:03:29.929Z,22.02
2018-06-09T04:04:29.747Z,22.01
2018-06-09T04:05:30.100Z,22.02
2018-06-09T04:06:30.046Z,22.04
2018-06-09T04:07:30.083Z,22.02
2018-06-09T04:08:30.121Z,22.02
2018-06-09T04:09:30.105Z,22.05
2018-06-09T04:10:29.905Z,22.03
2018-06-09T04:11:30.143Z,22.03
2018-06-09T04:12:29.938Z,22.02
2018-06-09T04:13:29.932Z,22.01
2018-06-09T04:14:29.879Z,22.03
2018-06-09T04:15:29.920Z,22.02
2018-06-09T04:16:30.092Z,22.04
2018-06-09T04:17:29.957Z,22.03
2018-06-09T04:18:30.067Z,22.02
2018-06-09T04:19:30.024Z,22.02
2018-06-09T04:20:30.100Z,22.03
2018-06-09T04:21:29.874Z,22.01
2018-06-09T04:22:29.843Z,22.02
2018-06-09T04:23:30.081Z,22.01
2018-06-09T04:24:29.844Z,22.04
2018-06-09T04:25:29.892Z,22.03
2018-06-09T04:26:29.903Z,22.03
2018-06-09T04:27:29.962Z,22.01
2018-06-09T04:28:29.984Z,22.02
2018-06-09T04:29:29.920Z,22.02
2018-06-09T04:30:29.917Z,22.01
2018-06-09T04:31:30.007Z,22.01
2018-06-09T04:32:29.924Z,22.01
2018-06-09T04:33:29.879Z,22.02
2018-06-09T04:34:29.949Z,22.01
2018-06-09T04:35:30.064Z,22.03
2018-06-09T04:36:29.947Z,22.02
2018-06-09T04:37:30.010Z,21.99
2018-06-09T04:38:31.395Z,22.03
2018-06-09T04:39:29.980Z,22.01
2018-06-09T04:40:29.876Z,22.02
2018-06-09T04:41:29.918Z,22.02
2018-06-09T04:42:30.228Z,22.02
2018-06-09T04:43:29.987Z,22.02
2018-06-09T04:44:29.987Z,21.99
2018-06-09T04:45:30.070Z,22.02
2018-06-09T04:46:30.121Z,22.02
2018-06-09T04:47:30.008Z,22.04
2018-06-09T04:48:30.042Z,21.99
2018-06-09T04:49:29.928Z,22.01
2018-06-09T04:50:30.084Z,22.02
2018-06-09T04:51:29.950Z,22.02
2018-06-09T04:52:30.054Z,22.01
2018-06-09T04:53:30.034Z,22.01
2018-06-09T04:54:29.946Z,22.02
2018-06-09T04:55:46.539Z,22.02
2018-06-09T04:56:30.070Z,22.02
2018-06-09T04:57:29.877Z,22.02
2018-06-09T04:58:30.124Z,22.03
2018-06-09T04:59:30.094Z,22.02
2018-06-09T05:00:29.878Z,21.98
2018-06-09T05:01:29.991Z,21.99
2018-06-09T05:02:30.000Z,22.02
2018-06-09T05:03:29.936Z,21.98
2018-06-09T05:04:29.874Z,22.01
2018-06-09T05:05:29.977Z,22.02
2018-06-09T05:06:29.807Z,21.98
2018-06-09T05:07:30.018Z,22.01
2018-06-09T05:08:29.875Z,22.01
2018-06-09T05:09:30.082Z,22.01
2018-06-09T05:10:30.045Z,22.02
2018-06-09T05:11:29.903Z,22.02
2018-06-09T05:12:39.827Z,22.01
2018-06-09T05:13:29.908Z,22.01
2018-06-09T05:14:29.862Z,21.99
2018-06-09T05:15:29.938Z,21.99
2018-06-09T05:16:29.951Z,21.99
2018-06-09T05:17:29.847Z,22.01
2018-06-09T05:18:29.952Z,22.02
2018-06-09T05:19:30.028Z,22.03
2018-06-09T05:20:29.963Z,22.01
2018-06-09T05:21:30.084Z,22.02
2018-06-09T05:22:29.980Z,22.01
2018-06-09T05:23:29.918Z,22.02
2018-06-09T05:24:29.882Z,22.02
2018-06-09T05:25:29.948Z,22.02
2018-06-09T05:26:30.018Z,21.99
2018-06-09T05:27:30.015Z,22.01
2018-06-09T05:28:29.869Z,22.02
2018-06-09T05:29:30.031Z,22.01
2018-06-09T05:30:29.857Z,21.99
2018-06-09T05:31:29.857Z,22.01
2018-06-09T05:32:29.861Z,22.01
2018-06-09T05:33:29.888Z,22.01
2018-06-09T05:34:29.912Z,22.02
2018-06-09T05:35:29.822Z,22.01
2018-06-09T05:36:30.063Z,21.98
2018-06-09T05:37:29.973Z,22.02
2018-06-09T05:38:30.038Z,22.01
2018-06-09T05:39:29.948Z,22.01
2018-06-09T05:40:30.022Z,22.02
2018-06-09T05:41:30.064Z,21.99
2018-06-09T05:42:29.976Z,22.02
2018-06-09T05:43:29.971Z,21.97
2018-06-09T05:44:29.892Z,22.01
2018-06-09T05:45:29.989Z,22.02
2018-06-09T05:46:29.810Z,21.99
2018-06-09T05:47:29.839Z,22.01
2018-06-09T05:48:29.957Z,22.02
2018-06-09T05:49:30.488Z,21.99
2018-06-09T05:50:30.018Z,22.01
2018-06-09T05:51:30.039Z,22.02
2018-06-09T05:52:30.046Z,21.99
2018-06-09T05:53:29.942Z,22.03
2018-06-09T05:54:29.941Z,22.01
2018-06-09T05:55:30.105Z,21.98
2018-06-09T05:56:30.145Z,22.02
2018-06-09T05:57:39.928Z,22.02
2018-06-09T05:58:30.067Z,22.02
2018-06-09T05:59:30.052Z,22.02
2018-06-09T06:00:30.004Z,22.02
2018-06-09T06:01:29.960Z,22.02
2018-06-09T06:02:29.828Z,21.99
2018-06-09T06:03:29.783Z,22.02
2018-06-09T06:04:29.984Z,22.01
2018-06-09T06:05:30.057Z,21.99
2018-06-09T06:06:30.027Z,22.01
2018-06-09T06:07:29.988Z,22.01
2018-06-09T06:08:30.047Z,22.01
2018-06-09T06:09:30.039Z,22.02
2018-06-09T06:10:29.985Z,22.03
2018-06-09T06:11:29.791Z,22.02
2018-06-09T06:12:30.018Z,22.02
2018-06-09T06:13:30.076Z,22.02
2018-06-09T06:14:30.152Z,22.02
2018-06-09T06:15:30.121Z,21.99
2018-06-09T06:16:29.945Z,22.02
2018-06-09T06:17:29.935Z,21.98
2018-06-09T06:18:30.096Z,22.01
2018-06-09T06:19:30.180Z,22.01
2018-06-09T06:20:29.886Z,22.02
2018-06-09T06:21:30.139Z,22.02
2018-06-09T06:22:29.928Z,22.01
2018-06-09T06:23:30.139Z,22.02
2018-06-09T06:24:29.945Z,21.99
2018-06-09T06:25:30.099Z,22.01
2018-06-09T06:26:30.026Z,22.01
2018-06-09T06:27:29.994Z,22.02
2018-06-09T06:28:30.055Z,22.02
2018-06-09T06:29:29.796Z,21.99
2018-06-09T06:30:29.837Z,22.01
2018-06-09T06:31:29.801Z,22.01
2018-06-09T06:32:29.840Z,22.01
2018-06-09T06:33:30.094Z,22.01
2018-06-09T06:34:29.857Z,21.99
2018-06-09T06:35:30.081Z,22.01
2018-06-09T06:36:29.904Z,22.01
2018-06-09T06:37:30.035Z,21.99
2018-06-09T06:38:29.898Z,22.01
2018-06-09T06:39:30.028Z,22.02
2018-06-09T06:40:29.915Z,21.99
2018-06-09T06:41:29.808Z,22.01
2018-06-09T06:42:29.791Z,22.01
2018-06-09T06:43:29.950Z,22.01
2018-06-09T06:44:29.847Z,22.02
2018-06-09T06:45:30.010Z,21.99
2018-06-09T06:46:29.883Z,22.01
2018-06-09T06:47:29.983Z,21.99
2018-06-09T06:48:29.987Z,21.99
2018-06-09T06:49:29.903Z,22.01
2018-06-09T06:50:29.964Z,21.99
2018-06-09T06:51:29.824Z,22.02
2018-06-09T06:52:29.911Z,21.98
2018-06-09T06:53:29.844Z,21.99
2018-06-09T06:54:29.923Z,21.98
2018-06-09T06:55:30.067Z,21.98
2018-06-09T06:56:29.963Z,21.98
2018-06-09T06:57:29.784Z,21.98
2018-06-09T06:58:30.061Z,21.99
2018-06-09T06:59:29.860Z,21.99
2018-06-09T07:00:29.872Z,22.01
2018-06-09T07:01:29.893Z,21.99
2018-06-09T07:02:29.799Z,22.02
2018-06-09T07:03:29.905Z,22.01
2018-06-09T07:04:29.891Z,22.01
2018-06-09T07:05:29.912Z,22.01
2018-06-09T07:06:30.277Z,21.99
2018-06-09T07:07:30.041Z,22.01
2018-06-09T07:08:30.113Z,21.97
2018-06-09T07:09:29.919Z,22.01
2018-06-09T07:10:29.965Z,21.98
2018-06-09T07:11:29.899Z,21.99
2018-06-09T07:12:29.841Z,21.99
2018-06-09T07:13:30.153Z,22.01
2018-06-09T07:14:29.925Z,21.97
2018-06-09T07:15:29.997Z,21.99
2018-06-09T07:16:29.936Z,21.99
2018-06-09T07:17:30.036Z,21.98
2018-06-09T07:18:29.819Z,21.98
2018-06-09T07:19:29.957Z,21.98
2018-06-09T07:20:30.087Z,21.97
2018-06-09T07:21:30.034Z,21.99
2018-06-09T07:22:29.941Z,21.99
2018-06-09T07:23:29.940Z,21.99
2018-06-09T07:24:29.843Z,21.98
2018-06-09T07:25:30.101Z,22.02
2018-06-09T07:26:29.904Z,21.97
2018-06-09T07:27:29.997Z,21.98
2018-06-09T07:28:29.999Z,21.97
2018-06-09T07:29:29.970Z,21.97
2018-06-09T07:30:29.793Z,21.98
2018-06-09T07:31:29.812Z,21.97
2018-06-09T07:32:29.890Z,21.97
2018-06-09T07:33:29.861Z,21.98
2018-06-09T07:34:29.903Z,21.98
2018-06-09T07:35:30.047Z,21.97
2018-06-09T07:36:30.082Z,21.97
2018-06-09T07:37:29.888Z,21.98
2018-06-09T07:38:30.249Z,21.97
2018-06-09T07:39:30.214Z,21.99
2018-06-09T07:40:29.954Z,22.01
2018-06-09T07:41:30.021Z,21.97
2018-06-09T07:42:29.784Z,21.98
2018-06-09T07:43:29.852Z,21.98
2018-06-09T07:44:30.139Z,21.99
2018-06-09T07:45:29.968Z,21.97
2018-06-09T07:46:29.896Z,21.97
2018-06-09T07:47:29.953Z,21.99
2018-06-09T07:48:29.889Z,21.98
2018-06-09T07:49:30.057Z,21.99
2018-06-09T07:50:29.814Z,21.99
2018-06-09T07:51:29.779Z,21.99
2018-06-09T07:52:29.887Z,21.97
2018-06-09T07:53:29.892Z,21.98
2018-06-09T07:54:29.930Z,21.98
2018-06-09T07:55:29.923Z,21.97
2018-06-09T07:56:30.032Z,21.97
2018-06-09T07:57:29.887Z,21.98
2018-06-09T07:58:29.936Z,21.97
2018-06-09T07:59:30.110Z,21.97
2018-06-09T08:00:29.816Z,21.98
2018-06-09T08:01:29.941Z,21.97
2018-06-09T08:02:29.911Z,21.97
2018-06-09T08:03:29.783Z,21.98
2018-06-09T08:04:30.018Z,21.98
2018-06-09T08:05:29.993Z,21.97
2018-06-09T08:06:29.823Z,21.97
2018-06-09T08:07:29.911Z,21.97
2018-06-09T08:08:29.886Z,21.98
2018-06-09T08:09:29.928Z,21.98
2018-06-09T08:10:30.046Z,21.97
2018-06-09T08:11:30.000Z,21.99
2018-06-09T08:12:29.924Z,22.04
2018-06-09T08:13:30.117Z,22.08
2018-06-09T08:14:30.169Z,22.07
2018-06-09T08:15:29.989Z,22.09
2018-06-09T08:16:29.880Z,22.06
2018-06-09T08:17:29.879Z,22.08
2018-06-09T08:18:29.940Z,22.07
2018-06-09T08:19:30.472Z,22.08
2018-06-09T08:20:29.774Z,22.08
2018-06-09T08:21:30.058Z,22.11
2018-06-09T08:22:29.927Z,22.11
2018-06-09T08:23:29.886Z,22.13
2018-06-09T08:24:30.227Z,22.13
2018-06-09T08:25:29.882Z,22.14
2018-06-09T08:26:29.950Z,22.19
2018-06-09T08:27:30.033Z,22.19
2018-06-09T08:28:29.924Z,22.16
2018-06-09T08:29:29.785Z,22.19
2018-06-09T08:30:29.982Z,22.2
2018-06-09T08:31:30.027Z,22.21
2018-06-09T08:32:30.013Z,22.22
2018-06-09T08:33:29.979Z,22.24
2018-06-09T08:34:30.142Z,22.25
2018-06-09T08:35:29.993Z,22.25
2018-06-09T08:36:30.135Z,22.31
2018-06-09T08:37:30.047Z,22.32
2018-06-09T08:38:30.589Z,22.34
2018-06-09T08:39:29.904Z,22.32
2018-06-09T08:40:29.819Z,22.33
2018-06-09T08:41:29.901Z,22.33
2018-06-09T08:42:29.846Z,22.33
2018-06-09T08:43:30.031Z,22.33
2018-06-09T08:44:29.879Z,22.33
2018-06-09T08:45:30.001Z,22.33
2018-06-09T08:46:29.910Z,22.36
2018-06-09T08:47:29.953Z,22.38
2018-06-09T08:48:29.817Z,22.36
2018-06-09T08:49:29.732Z,22.38
2018-06-09T08:50:29.833Z,22.37
2018-06-09T08:51:29.999Z,22.38
2018-06-09T08:52:29.927Z,22.39
2018-06-09T08:53:30.053Z,22.38
2018-06-09T08:54:29.987Z,22.41
2018-06-09T08:55:29.994Z,22.41
2018-06-09T08:56:29.802Z,22.4
2018-06-09T08:57:29.881Z,22.42
2018-06-09T08:58:29.829Z,22.42
2018-06-09T08:59:29.937Z,22.44
2018-06-09T09:00:30.023Z,22.46
2018-06-09T09:01:30.278Z,22.43
2018-06-09T09:02:29.800Z,22.47
2018-06-09T09:03:29.998Z,22.44
2018-06-09T09:04:30.041Z,22.46
2018-06-09T09:05:29.924Z,22.49
2018-06-09T09:06:29.842Z,22.46
2018-06-09T09:07:29.784Z,22.48
2018-06-09T09:08:29.839Z,22.44
2018-06-09T09:09:29.957Z,22.46
2018-06-09T09:10:29.833Z,22.48
2018-06-09T09:11:29.886Z,22.48
2018-06-09T09:12:29.927Z,22.46
2018-06-09T09:13:29.807Z,22.47
2018-06-09T09:14:29.750Z,22.46
2018-06-09T09:15:30.039Z,22.49
2018-06-09T09:16:30.228Z,22.5
2018-06-09T09:17:29.888Z,22.49
2018-06-09T09:18:29.857Z,22.5
2018-06-09T09:19:29.961Z,22.48
2018-06-09T09:20:30.055Z,22.48
2018-06-09T09:21:29.835Z,22.49
2018-06-09T09:22:29.906Z,22.48
2018-06-09T09:23:30.044Z,22.49
2018-06-09T09:24:29.940Z,22.5
2018-06-09T09:25:30.155Z,22.51
2018-06-09T09:26:29.787Z,22.48
2018-06-09T09:27:29.803Z,22.49
2018-06-09T09:28:29.875Z,22.5
2018-06-09T09:29:29.787Z,22.52
2018-06-09T09:30:29.944Z,22.53
2018-06-09T09:31:30.080Z,22.51
2018-06-09T09:32:29.865Z,22.53
2018-06-09T09:33:30.015Z,22.52
2018-06-09T09:34:29.970Z,22.54
2018-06-09T09:35:29.884Z,22.54
2018-06-09T09:36:29.997Z,22.56
2018-06-09T09:37:29.755Z,22.53
2018-06-09T09:38:29.966Z,22.53
2018-06-09T09:39:29.840Z,22.54
2018-06-09T09:40:30.132Z,22.54
2018-06-09T09:41:30.041Z,22.55
2018-06-09T09:42:29.805Z,22.55
2018-06-09T09:43:29.845Z,22.55
2018-06-09T09:44:29.939Z,22.54
2018-06-09T09:45:30.097Z,22.56
2018-06-09T09:46:29.770Z,22.56
2018-06-09T09:47:29.728Z,22.56
2018-06-09T09:48:29.947Z,22.55
2018-06-09T09:49:29.843Z,22.56
2018-06-09T09:50:30.057Z,22.55
2018-06-09T09:51:29.903Z,22.56
2018-06-09T09:52:29.882Z,22.56
2018-06-09T09:53:29.892Z,22.58
2018-06-09T09:54:30.031Z,22.58
2018-06-09T09:55:29.890Z,22.56
2018-06-09T09:56:29.759Z,22.61
2018-06-09T09:57:29.825Z,22.61
2018-06-09T09:58:30.065Z,22.63
2018-06-09T09:59:29.971Z,22.6
2018-06-09T10:00:30.010Z,22.62
2018-06-09T10:01:29.943Z,22.6
2018-06-09T10:02:29.775Z,22.61
2018-06-09T10:03:29.954Z,22.62
2018-06-09T10:04:29.895Z,22.63
2018-06-09T10:05:29.777Z,22.64
2018-06-09T10:06:30.225Z,22.64
2018-06-09T10:07:29.839Z,22.64
2018-06-09T10:08:29.870Z,22.62
2018-06-09T10:09:29.830Z,22.65
2018-06-09T10:10:29.960Z,22.64
2018-06-09T10:11:29.945Z,22.64
2018-06-09T10:12:29.836Z,22.63
2018-06-09T10:13:29.893Z,22.66
2018-06-09T10:14:30.132Z,22.64
2018-06-09T10:15:29.823Z,22.65
2018-06-09T10:16:29.773Z,22.63
2018-06-09T10:17:29.969Z,22.65
2018-06-09T10:18:29.768Z,22.65
2018-06-09T10:19:29.815Z,22.64
2018-06-09T10:20:29.718Z,22.66
2018-06-09T10:21:29.828Z,22.65
2018-06-09T10:22:29.842Z,22.67
2018-06-09T10:23:29.868Z,22.67
2018-06-09T10:24:29.872Z,22.66
2018-06-09T10:25:29.813Z,22.68
2018-06-09T10:26:29.863Z,22.64
2018-06-09T10:27:29.717Z,22.65
2018-06-09T10:28:29.776Z,22.66
2018-06-09T10:29:29.822Z,22.66
2018-06-09T10:30:29.829Z,22.69
2018-06-09T10:31:29.869Z,22.69
2018-06-09T10:32:29.818Z,22.69
2018-06-09T10:33:29.987Z,22.65
2018-06-09T10:34:30.096Z,22.62
2018-06-09T10:35:29.874Z,22.64
2018-06-09T10:36:30.010Z,22.62
2018-06-09T10:37:29.915Z,22.64
2018-06-09T10:38:29.676Z,22.61
2018-06-09T10:39:29.867Z,22.6
2018-06-09T10:40:30.197Z,22.6
2018-06-09T10:41:29.998Z,22.58
2018-06-09T10:42:29.947Z,22.58
2018-06-09T10:43:29.906Z,22.58
2018-06-09T10:44:29.948Z,22.58
2018-06-09T10:45:29.941Z,22.6
2018-06-09T10:46:29.908Z,22.57
2018-06-09T10:47:30.037Z,22.57
2018-06-09T10:48:29.710Z,22.56
2018-06-09T10:49:29.754Z,22.58
2018-06-09T10:50:29.787Z,22.56
2018-06-09T10:51:29.870Z,22.56
2018-06-09T10:52:30.014Z,22.54
2018-06-09T10:53:29.977Z,22.56
2018-06-09T10:54:29.756Z,22.55
2018-06-09T10:55:29.715Z,22.54
2018-06-09T10:56:29.752Z,22.53
2018-06-09T10:57:33.416Z,22.5
2018-06-09T10:58:29.934Z,22.51
2018-06-09T10:59:29.754Z,22.53
2018-06-09T11:00:29.785Z,22.51
2018-06-09T11:01:29.933Z,22.49
2018-06-09T11:02:30.022Z,22.49
2018-06-09T11:03:30.037Z,22.47
2018-06-09T11:04:30.031Z,22.46
2018-06-09T11:05:29.853Z,22.43
2018-06-09T11:06:29.995Z,22.43
2018-06-09T11:07:30.158Z,22.42
2018-06-09T11:08:29.866Z,22.42
2018-06-09T11:09:29.727Z,22.41
2018-06-09T11:10:30.041Z,22.41
2018-06-09T11:11:29.816Z,22.4
2018-06-09T11:12:29.906Z,22.4
2018-06-09T11:13:29.863Z,22.39
2018-06-09T11:14:29.756Z,22.39
2018-06-09T11:15:30.326Z,22.39
2018-06-09T11:16:29.939Z,22.37
2018-06-09T11:17:30.206Z,22.38
2018-06-09T11:18:29.872Z,22.39
2018-06-09T11:19:29.769Z,22.39
2018-06-09T11:20:29.926Z,22.38
2018-06-09T11:21:30.018Z,22.38
2018-06-09T11:22:29.771Z,22.38
2018-06-09T11:23:29.777Z,22.38
2018-06-09T11:24:30.499Z,22.36
2018-06-09T11:25:30.009Z,22.36
2018-06-09T11:26:29.897Z,22.36
2018-06-09T11:27:29.787Z,22.36
2018-06-09T11:28:29.773Z,22.35
2018-06-09T11:29:29.908Z,22.37
2018-06-09T11:30:29.862Z,22.36
2018-06-09T11:31:29.696Z,22.37
2018-06-09T11:32:29.802Z,22.36
2018-06-09T11:33:29.798Z,22.35
2018-06-09T11:34:29.845Z,22.34
2018-06-09T11:35:29.791Z,22.34
2018-06-09T11:36:29.741Z,22.34
2018-06-09T11:37:29.939Z,22.34
2018-06-09T11:38:29.883Z,22.34
2018-06-09T11:39:29.892Z,22.33
2018-06-09T11:40:29.784Z,22.33
2018-06-09T11:41:29.987Z,22.32
2018-06-09T11:42:29.788Z,22.33
2018-06-09T11:43:30.021Z,22.33
2018-06-09T11:44:29.921Z,22.33
2018-06-09T11:45:29.794Z,22.32
2018-06-09T11:46:29.908Z,22.34
2018-06-09T11:47:29.917Z,22.29
2018-06-09T11:48:29.845Z,22.28
2018-06-09T11:49:29.823Z,22.29
2018-06-09T11:50:29.888Z,22.29
2018-06-09T11:51:29.903Z,22.31
2018-06-09T11:52:29.819Z,22.29
2018-06-09T11:53:29.853Z,22.31
2018-06-09T11:54:29.983Z,22.29
2018-06-09T11:55:29.851Z,22.28
2018-06-09T11:56:29.932Z,22.28
2018-06-09T11:57:29.735Z,22.28
2018-06-09T11:58:29.960Z,22.31
2018-06-09T11:59:29.968Z,22.29
2018-06-09T12:00:29.908Z,22.32
2018-06-09T12:01:29.847Z,22.27
2018-06-09T12:02:29.740Z,22.28
2018-06-09T12:03:29.797Z,22.28
2018-06-09T12:04:30.040Z,22.28
2018-06-09T12:05:29.807Z,22.28
2018-06-09T12:06:29.907Z,22.28
2018-06-09T12:07:29.849Z,22.29
2018-06-09T12:08:29.842Z,22.26
2018-06-09T12:09:29.868Z,22.27
2018-06-09T12:10:30.067Z,22.28
2018-06-09T12:11:29.930Z,22.26
2018-06-09T12:12:29.794Z,22.27
2018-06-09T12:13:29.842Z,22.24
2018-06-09T12:14:29.808Z,22.24
2018-06-09T12:15:29.885Z,22.26
2018-06-09T12:16:29.935Z,22.25
2018-06-09T12:17:30.091Z,22.25
2018-06-09T12:18:29.783Z,22.25
2018-06-09T12:19:30.021Z,22.24
2018-06-09T12:20:29.889Z,22.24
2018-06-09T12:21:29.840Z,22.25
2018-06-09T12:22:39.821Z,22.24
2018-06-09T12:23:29.953Z,22.24
2018-06-09T12:24:29.933Z,22.24
2018-06-09T12:25:30.044Z,22.23
2018-06-09T12:26:30.121Z,22.21
2018-06-09T12:27:29.870Z,22.31
2018-06-09T12:28:29.897Z,22.32
2018-06-09T12:29:29.888Z,22.34
2018-06-09T12:30:30.014Z,22.34
2018-06-09T12:31:29.961Z,22.36
2018-06-09T12:32:30.173Z,22.35
2018-06-09T12:33:29.927Z,22.37
2018-06-09T12:34:29.863Z,22.39
2018-06-09T12:35:29.891Z,22.39
2018-06-09T12:36:29.791Z,22.43
2018-06-09T12:37:29.889Z,22.42
2018-06-09T12:38:30.039Z,22.43
2018-06-09T12:39:29.992Z,22.46
2018-06-09T12:40:29.905Z,22.48
2018-06-09T12:41:53.346Z,22.52
2018-06-09T12:42:53.481Z,22.56
2018-06-09T12:43:53.474Z,22.57
2018-06-09T12:44:53.373Z,22.6
2018-06-09T12:45:53.255Z,22.6
2018-06-09T12:46:53.430Z,22.62
2018-06-09T12:47:53.356Z,22.65
2018-06-09T12:48:53.418Z,22.63
2018-06-09T12:49:53.394Z,22.66
2018-06-09T12:50:53.134Z,22.68
2018-06-09T12:51:53.350Z,22.67
2018-06-09T12:52:53.422Z,22.67
2018-06-09T12:53:53.340Z,22.69